Time;durP1;ratioP1;P1;durP2;ratioP2;P2;SDS_P1;SDS_P2;PMS_P1;PMS_P2;Temp;Humidity;BMP_temperature;BMP_pressure;BME280_temperature;BME280_humidity;BME280_pressure;Samples;Min_cycle;Max_cycle;Signal;HPM_P1;HPM_P2
2023/08/28 00:01:31;;;;;;;2.50;0.85;;;;;;;-142.75;100.00;76206.13;5032943;28;20237;-62
2023/08/28 00:03:57;;;;;;;3.83;0.90;;;;;;;-142.75;100.00;76196.31;5036424;28;20017;-62
2023/08/28 00:06:22;;;;;;;4.03;0.65;;;;;;;-142.75;100.00;76194.34;5032404;28;20021;-62
2023/08/28 00:08:47;;;;;;;1.90;0.82;;;;;;;-142.75;100.00;76196.31;5031624;28;20696;-62
2023/08/28 00:11:13;;;;;;;2.67;0.73;;;;;;;-142.75;100.00;76196.31;5032992;28;20173;-62
2023/08/28 00:13:38;;;;;;;4.60;0.90;;;;;;;-142.75;100.00;76198.28;5032609;28;20014;-62
2023/08/28 00:16:03;;;;;;;1.90;0.80;;;;;;;-142.75;100.00;76200.25;5032521;28;20051;-62
2023/08/28 00:18:29;;;;;;;3.00;0.70;;;;;;;-142.75;100.00;76208.09;5033448;28;20024;-62
2023/08/28 00:20:55;;;;;;;2.97;0.90;;;;;;;-142.75;100.00;76212.03;5034229;28;20017;-62
2023/08/28 00:23:20;;;;;;;1.42;0.82;;;;;;;-142.75;100.00;76200.25;5033786;28;20017;-62
2023/08/28 00:25:45;;;;;;;5.90;0.85;;;;;;;-142.75;100.00;76194.34;5032807;28;20043;-62
2023/08/28 00:28:11;;;;;;;1.27;0.63;;;;;;;-142.75;100.00;76192.38;5032400;28;20094;-62
2023/08/28 00:30:36;;;;;;;2.20;0.80;;;;;;;-142.75;100.00;76176.63;5032742;28;20100;-62
2023/08/28 00:33:02;;;;;;;2.25;0.85;;;;;;;-142.75;100.00;76172.69;5032599;28;20020;-62
2023/08/28 00:35:27;;;;;;;2.88;0.90;;;;;;;-142.75;100.00;76156.94;5032212;28;20021;-62
2023/08/28 00:37:52;;;;;;;4.40;0.90;;;;;;;-142.75;100.00;76170.72;5033096;28;20025;-62
2023/08/28 00:40:18;;;;;;;3.58;1.08;;;;;;;-142.75;100.00;76166.78;5032317;28;20380;-62
2023/08/28 00:42:44;;;;;;;4.38;0.80;;;;;;;-142.75;100.00;76166.78;5032765;28;20033;-62
2023/08/28 00:45:09;;;;;;;2.72;0.70;;;;;;;-142.75;100.00;76164.81;5033367;28;20021;-62
2023/08/28 00:47:35;;;;;;;2.67;0.73;;;;;;;-142.75;100.00;76168.75;5032781;28;20242;-62
2023/08/28 00:50:03;;;;;;;2.13;0.75;;;;;;;-142.75;100.00;76160.88;5040719;28;20039;-62
2023/08/28 00:52:29;;;;;;;1.73;0.90;;;;;;;-142.75;100.00;76168.75;5033321;28;20055;-62
2023/08/28 00:54:54;;;;;;;3.72;1.27;;;;;;;-142.75;100.00;76178.59;5034715;28;20017;-62
2023/08/28 00:57:20;;;;;;;3.25;0.63;;;;;;;-142.75;100.00;76170.72;5032134;28;20017;-62
2023/08/28 00:59:45;;;;;;;4.68;0.82;;;;;;;-142.75;100.00;76174.66;5032604;28;20052;-62
2023/08/28 01:02:11;;;;;;;2.50;1.00;;;;;;;-142.75;100.00;76172.69;5032505;28;20020;-62
2023/08/28 01:04:36;;;;;;;2.50;0.70;;;;;;;-142.75;100.00;76174.66;5031540;28;20090;-61
2023/08/28 01:07:14;;;;;;;3.80;0.88;;;;;;;-142.75;100.00;76156.94;5032013;28;20398;-62
2023/08/28 01:09:51;;;;;;;5.55;1.45;;;;;;;-142.75;100.00;76143.16;5027821;28;20040;-62
2023/08/28 01:12:26;;;;;;;3.90;0.98;;;;;;;-142.75;100.00;76131.34;5027944;28;20380;-61
2023/08/28 01:15:12;;;;;;;2.83;0.90;;;;;;;-142.75;100.00;76121.50;5028507;28;20076;-60
2023/08/28 01:17:40;;;;;;;3.67;0.98;;;;;;;-142.75;100.00;76125.44;5027937;28;20028;-62
2023/08/28 01:20:11;;;;;;;3.13;0.80;;;;;;;-142.75;100.00;76133.31;5029000;28;20017;-62
2023/08/28 01:22:54;;;;;;;2.28;0.93;;;;;;;-142.75;100.00;76135.28;5028635;28;20080;-62
2023/08/28 01:25:20;;;;;;;3.30;0.93;;;;;;;-142.75;100.00;76158.91;5028505;28;20028;-62
2023/08/28 01:27:46;;;;;;;2.53;0.70;;;;;;;-142.75;100.00;76164.81;5029182;28;20523;-62
2023/08/28 01:30:16;;;;;;;3.75;0.90;;;;;;;-142.75;100.00;76174.66;5028845;28;20026;-62
2023/08/28 01:32:43;;;;;;;2.42;0.90;;;;;;;-142.75;100.00;76180.56;5028515;28;20047;-62
2023/08/28 01:35:12;;;;;;;5.38;1.00;;;;;;;-142.75;100.00;76188.44;5030914;28;20024;-62
2023/08/28 01:37:44;;;;;;;5.70;1.50;;;;;;;-142.75;100.00;76178.59;5029147;28;20568;-62
2023/08/28 01:40:12;;;;;;;6.18;1.13;;;;;;;-142.75;100.00;76188.44;5028892;28;20468;-61
2023/08/28 01:42:38;;;;;;;5.35;1.60;;;;;;;-142.75;100.00;76196.31;5028398;28;20372;-62
2023/08/28 01:45:05;;;;;;;4.47;1.40;;;;;;;-142.75;100.00;76188.44;5028331;28;20029;-62
2023/08/28 01:47:30;;;;;;;2.90;1.17;;;;;;;-142.75;100.00;76184.50;5031239;28;20017;-61
2023/08/28 01:49:56;;;;;;;4.10;1.10;;;;;;;-142.75;100.00;76188.44;5028464;28;20035;-62
2023/08/28 01:52:21;;;;;;;2.22;1.13;;;;;;;-142.75;100.00;76186.47;5029887;28;20104;-61
2023/08/28 01:54:47;;;;;;;3.00;1.20;;;;;;;-142.75;100.00;76200.25;5030970;28;20018;-62
2023/08/28 01:57:12;;;;;;;5.15;1.05;;;;;;;-142.75;100.00;76198.28;5028656;28;20028;-62
2023/08/28 01:59:37;;;;;;;3.63;1.65;;;;;;;-142.75;100.00;76180.56;5028276;28;20053;-62
2023/08/28 02:02:03;;;;;;;3.33;1.10;;;;;;;-142.75;100.00;76172.69;5028057;28;20029;-62
2023/08/28 02:04:28;;;;;;;3.05;1.08;;;;;;;-142.75;100.00;76168.75;5032672;28;20025;-62
2023/08/28 02:06:53;;;;;;;2.53;1.00;;;;;;;-142.75;100.00;76158.91;5034088;28;20028;-62
2023/08/28 02:09:19;;;;;;;3.67;0.95;;;;;;;-142.75;100.00;76139.22;5029411;28;20036;-62
2023/08/28 02:11:44;;;;;;;2.65;0.95;;;;;;;-142.75;100.00;76131.34;5028406;28;20052;-63
2023/08/28 02:14:09;;;;;;;2.08;0.88;;;;;;;-142.75;100.00;76143.16;5036825;28;20055;-62
2023/08/28 02:16:37;;;;;;;2.30;0.70;;;;;;;-142.75;100.00;76154.97;5025522;28;20076;-62
2023/08/28 02:19:02;;;;;;;3.35;1.08;;;;;;;-142.75;100.00;76166.78;5025626;28;20527;-62
2023/08/28 02:21:28;;;;;;;2.58;1.10;;;;;;;-142.75;100.00;76176.63;5034557;28;20025;-63
2023/08/28 02:23:53;;;;;;;2.92;0.70;;;;;;;-142.75;100.00;76176.63;5027048;28;20076;-62
2023/08/28 02:26:18;;;;;;;1.75;0.77;;;;;;;-142.75;100.00;76180.56;5027246;28;20013;-62
2023/08/28 02:28:44;;;;;;;2.58;0.80;;;;;;;-142.75;100.00;76184.50;5031966;28;20072;-62
2023/08/28 02:31:09;;;;;;;4.75;1.08;;;;;;;-142.75;100.00;76188.44;5033743;28;20017;-62
2023/08/28 02:33:34;;;;;;;1.58;0.70;;;;;;;-142.75;100.00;76192.38;5033337;28;20025;-62
2023/08/28 02:36:01;;;;;;;4.22;1.17;;;;;;;-142.75;100.00;76204.16;5025745;28;20087;-62
2023/08/28 02:38:26;;;;;;;2.05;0.98;;;;;;;-142.75;100.00;76208.09;5025691;28;20496;-62
2023/08/28 02:40:52;;;;;;;3.08;0.90;;;;;;;-142.75;100.00;76219.91;5026793;28;20022;-62
2023/08/28 02:43:17;;;;;;;3.05;0.77;;;;;;;-142.75;100.00;76231.72;5027351;28;20018;-62
2023/08/28 02:45:42;;;;;;;4.07;0.63;;;;;;;-142.75;100.00;76231.72;5027211;28;20116;-62
2023/08/28 02:48:09;;;;;;;2.10;1.05;;;;;;;-142.75;100.00;76219.91;5032505;28;20043;-62
2023/08/28 02:50:35;;;;;;;3.42;1.45;;;;;;;-142.75;100.00;76225.81;5028903;28;20017;-62
2023/08/28 02:53:00;;;;;;;1.75;0.80;;;;;;;-142.75;100.00;76215.97;5027305;28;20484;-62
2023/08/28 02:55:26;;;;;;;3.50;1.30;;;;;;;-142.75;100.00;76206.13;5026821;28;20013;-62
2023/08/28 02:57:51;;;;;;;2.92;1.00;;;;;;;-142.75;100.00;76206.13;5038696;28;20024;-62
2023/08/28 03:00:18;;;;;;;3.03;1.20;;;;;;;-142.75;100.00;76202.19;5036775;28;20043;-62
2023/08/28 03:02:44;;;;;;;1.33;0.80;;;;;;;-142.75;100.00;76206.13;5028284;28;20021;-62
2023/08/28 03:05:09;;;;;;;4.18;1.38;;;;;;;-142.75;100.00;76214.00;5031328;28;20041;-62
2023/08/28 03:07:34;;;;;;;3.75;1.27;;;;;;;-142.75;100.00;76215.97;5033900;28;20075;-62
2023/08/28 03:10:00;;;;;;;2.47;1.38;;;;;;;-142.75;100.00;76208.09;5027221;28;20048;-62
2023/08/28 03:12:25;;;;;;;3.25;1.35;;;;;;;-142.75;100.00;76215.97;5027054;28;20029;-62
2023/08/28 03:14:50;;;;;;;3.63;1.33;;;;;;;-142.75;100.00;76225.81;5029152;28;20024;-62
2023/08/28 03:17:16;;;;;;;3.47;1.30;;;;;;;-142.75;100.00;76223.84;5036678;28;20028;-62
2023/08/28 03:19:41;;;;;;;4.40;1.20;;;;;;;-142.75;100.00;76215.97;5026789;28;20104;-62
2023/08/28 03:22:06;;;;;;;2.05;0.80;;;;;;;-142.75;100.00;76227.78;5026817;28;20127;-62
2023/08/28 03:24:32;;;;;;;3.33;1.00;;;;;;;-142.75;100.00;76214.00;5031823;28;20537;-62
2023/08/28 03:26:57;;;;;;;4.07;1.23;;;;;;;-142.75;100.00;76200.25;5026652;28;20041;-62
2023/08/28 03:29:23;;;;;;;4.15;0.90;;;;;;;-142.75;100.00;76184.50;5026963;28;20049;-62
2023/08/28 03:31:49;;;;;;;3.97;1.48;;;;;;;-142.75;100.00;76160.88;5026065;28;20025;-62
2023/08/28 03:34:15;;;;;;;2.47;0.95;;;;;;;-142.75;100.00;76160.88;5026685;28;20036;-62
2023/08/28 03:36:41;;;;;;;1.77;0.88;;;;;;;-142.75;100.00;76156.94;5029598;28;20025;-62
2023/08/28 03:39:07;;;;;;;3.53;1.20;;;;;;;-142.75;100.00;76121.50;5026299;28;20239;-62
2023/08/28 03:41:32;;;;;;;1.90;0.90;;;;;;;-142.75;100.00;76113.63;5030669;28;20388;-62
2023/08/28 03:43:57;;;;;;;2.92;0.90;;;;;;;-142.75;100.00;76115.59;5026373;28;20631;-62
2023/08/28 03:46:23;;;;;;;2.80;0.70;;;;;;;-142.75;100.00;76111.66;5026139;28;20128;-61
2023/08/28 03:48:48;;;;;;;3.97;0.80;;;;;;;-142.75;100.00;76117.56;5026166;28;20021;-62
2023/08/28 03:51:13;;;;;;;2.13;0.80;;;;;;;-142.75;100.00;76119.53;5026686;28;20032;-62
2023/08/28 03:53:41;;;;;;;2.20;1.05;;;;;;;-142.75;100.00;76121.50;5026226;28;20040;-62
2023/08/28 03:56:06;;;;;;;6.20;1.15;;;;;;;-142.75;100.00;76131.34;5029490;28;20036;-62
2023/08/28 03:58:31;;;;;;;4.28;1.55;;;;;;;-142.75;100.00;76133.31;5036719;28;20120;-62
2023/08/28 04:00:57;;;;;;;4.70;1.05;;;;;;;-142.75;100.00;76131.34;5025388;28;20030;-62
2023/08/28 04:03:22;;;;;;;1.60;0.93;;;;;;;-142.75;100.00;76133.31;5026371;28;20033;-62
2023/08/28 04:05:48;;;;;;;3.30;1.70;;;;;;;-142.75;100.00;76127.41;5025779;28;20042;-62
2023/08/28 04:08:14;;;;;;;3.65;1.25;;;;;;;-142.75;100.00;76119.53;5027337;28;20021;-62
2023/08/28 04:10:40;;;;;;;2.72;1.10;;;;;;;-142.75;100.00;76105.75;5027611;28;20033;-62
2023/08/28 04:13:06;;;;;;;4.45;0.88;;;;;;;-142.75;100.00;76101.81;5026149;28;20091;-62
2023/08/28 04:15:31;;;;;;;2.97;1.05;;;;;;;-142.75;100.00;76093.94;5025572;28;20033;-62
2023/08/28 04:17:59;;;;;;;3.38;1.23;;;;;;;-142.75;100.00;76101.81;5029854;28;20439;-62
2023/08/28 04:20:24;;;;;;;3.15;1.10;;;;;;;-142.75;100.00;76095.91;5026104;28;20034;-62
2023/08/28 04:22:50;;;;;;;2.67;0.68;;;;;;;-142.75;100.00;76097.88;5025964;28;20056;-62
2023/08/28 04:25:15;;;;;;;2.33;0.90;;;;;;;-142.75;100.00;76109.69;5024422;28;20773;-62
2023/08/28 04:27:41;;;;;;;4.43;1.33;;;;;;;-142.75;100.00;76105.75;5029568;28;20028;-62
2023/08/28 04:30:09;;;;;;;3.72;1.20;;;;;;;-142.75;100.00;76090.00;5025825;28;20032;-62
2023/08/28 04:32:35;;;;;;;4.75;1.13;;;;;;;-142.75;100.00;76091.97;5022306;28;20022;-62
2023/08/28 04:35:01;;;;;;;2.15;0.98;;;;;;;-142.75;100.00;76090.00;5024507;28;20052;-62
2023/08/28 04:37:27;;;;;;;2.80;1.30;;;;;;;-142.75;100.00;76090.00;5025341;28;20555;-62
2023/08/28 04:39:53;;;;;;;2.10;1.10;;;;;;;-142.75;100.00;76093.94;5031698;28;20075;-62
2023/08/28 04:42:18;;;;;;;2.45;1.50;;;;;;;-142.75;100.00;76101.81;5025679;28;20034;-58
2023/08/28 04:44:44;;;;;;;2.65;1.40;;;;;;;-142.75;100.00;76090.00;5041178;28;20415;-62
2023/08/28 04:47:09;;;;;;;3.17;1.33;;;;;;;-142.75;100.00;76091.97;5029447;28;20022;-62
2023/08/28 04:49:35;;;;;;;3.13;1.35;;;;;;;-142.75;100.00;76090.00;5028747;28;20034;-62
2023/08/28 04:52:01;;;;;;;3.35;1.58;;;;;;;-142.75;100.00;76097.88;5030400;28;20653;-62
2023/08/28 04:54:26;;;;;;;3.03;1.58;;;;;;;-142.75;100.00;76113.63;5031666;28;20029;-62
2023/08/28 04:56:51;;;;;;;3.05;1.65;;;;;;;-142.75;100.00;76129.38;5029138;28;20021;-62
2023/08/28 04:59:17;;;;;;;4.95;1.50;;;;;;;-142.75;100.00;76109.69;5031760;28;20632;-62
2023/08/28 05:01:42;;;;;;;2.97;1.40;;;;;;;-142.75;100.00;76103.78;5029779;28;20018;-62
2023/08/28 05:04:08;;;;;;;3.92;1.40;;;;;;;-142.75;100.00;76103.78;5036053;28;20473;-62
2023/08/28 05:06:33;;;;;;;3.88;1.38;;;;;;;-142.75;100.00;76105.75;5028905;28;20407;-62
2023/08/28 05:08:58;;;;;;;3.15;1.58;;;;;;;-142.75;100.00;76101.81;5029138;28;20059;-62
2023/08/28 05:11:24;;;;;;;4.22;1.77;;;;;;;-142.75;100.00;76093.94;5029272;28;20604;-62
2023/08/28 05:13:49;;;;;;;2.47;1.60;;;;;;;-142.75;100.00;76093.94;5028964;28;20013;-62
2023/08/28 05:16:14;;;;;;;5.72;1.20;;;;;;;-142.75;100.00;76101.81;5036129;28;20674;-62
2023/08/28 05:18:40;;;;;;;2.90;1.45;;;;;;;-142.75;100.00;76090.00;5031568;28;20052;-62
2023/08/28 05:21:05;;;;;;;3.22;1.75;;;;;;;-142.75;100.00;76090.00;5028975;28;20084;-62
2023/08/28 05:23:31;;;;;;;2.92;1.30;;;;;;;-142.75;100.00;76088.03;5028917;28;20027;-62
2023/08/28 05:25:57;;;;;;;4.85;1.40;;;;;;;-142.75;100.00;76084.09;5029512;28;20025;-62
2023/08/28 05:28:22;;;;;;;2.88;1.20;;;;;;;-142.75;100.00;76078.19;5029516;28;20100;-62
2023/08/28 05:30:47;;;;;;;3.17;1.58;;;;;;;-142.75;100.00;76076.22;5027899;28;20029;-62
2023/08/28 05:33:13;;;;;;;3.50;1.50;;;;;;;-142.75;100.00;76082.13;5026689;28;20092;-62
2023/08/28 05:35:38;;;;;;;8.15;1.45;;;;;;;-142.75;100.00;76101.81;5025653;28;20420;-62
2023/08/28 05:38:05;;;;;;;2.35;1.40;;;;;;;-142.75;100.00;76093.94;5028361;28;20669;-62
2023/08/28 05:40:31;;;;;;;5.10;1.60;;;;;;;-142.75;100.00;76076.22;5027720;28;20149;-62
2023/08/28 05:42:56;;;;;;;2.88;1.52;;;;;;;-142.75;100.00;76074.25;5030815;28;20599;-62
2023/08/28 05:45:23;;;;;;;2.08;1.25;;;;;;;-142.75;100.00;76074.25;5027449;28;20092;-62
2023/08/28 05:47:48;;;;;;;2.97;1.30;;;;;;;-142.75;100.00;76068.38;5028803;28;20037;-62
2023/08/28 05:50:14;;;;;;;1.70;1.08;;;;;;;-142.75;100.00;76070.34;5028661;28;20034;-62
2023/08/28 05:52:40;;;;;;;5.32;1.92;;;;;;;-142.75;100.00;76064.44;5033213;28;20492;-62
2023/08/28 05:55:06;;;;;;;2.85;1.42;;;;;;;-142.75;100.00;76064.44;5025634;28;20112;-62
2023/08/28 05:57:31;;;;;;;6.63;1.42;;;;;;;-142.75;100.00;76054.59;5024947;28;20516;-62
2023/08/28 05:59:56;;;;;;;4.95;2.03;;;;;;;-142.75;100.00;76052.63;5028009;28;20026;-62
2023/08/28 06:02:22;;;;;;;2.63;1.60;;;;;;;-142.75;100.00;76046.72;5028106;28;20092;-62
2023/08/28 06:04:48;;;;;;;2.22;1.30;;;;;;;-142.75;100.00;76048.69;5028143;28;20032;-62
2023/08/28 06:07:14;;;;;;;3.42;1.33;;;;;;;-142.75;100.00;76054.59;5028132;28;20571;-62
2023/08/28 06:09:42;;;;;;;2.65;1.30;;;;;;;-142.75;100.00;76040.81;5029817;28;20033;-62
2023/08/28 06:12:07;;;;;;;2.55;1.70;;;;;;;-142.75;100.00;76027.03;5027017;28;20095;-62
2023/08/28 06:14:32;;;;;;;3.60;1.90;;;;;;;-142.75;100.00;76011.28;5027837;28;20452;-62
2023/08/28 06:16:58;;;;;;;4.00;1.75;;;;;;;-142.75;100.00;76005.38;5027651;28;20022;-62
2023/08/28 06:19:23;;;;;;;3.72;1.83;;;;;;;-142.75;100.00;76001.44;5028451;28;20034;-62
2023/08/28 06:21:48;;;;;;;3.30;1.92;;;;;;;-142.75;100.00;75993.56;5026497;28;20424;-63
2023/08/28 06:24:14;;;;;;;4.07;2.03;;;;;;;-142.75;100.00;75983.72;5027867;28;20080;-62
2023/08/28 06:26:42;;;;;;;4.68;1.73;;;;;;;-142.75;100.00;75967.97;5027447;28;20029;-62
2023/08/28 06:29:07;;;;;;;5.03;1.70;;;;;;;-142.75;100.00;75969.94;5032237;28;20041;-63
2023/08/28 06:31:33;;;;;;;3.15;1.50;;;;;;;-142.75;100.00;75962.09;5026161;28;20040;-62
2023/08/28 06:33:58;;;;;;;2.50;1.40;;;;;;;-142.75;100.00;75967.97;5027923;28;20018;-62
2023/08/28 06:36:23;;;;;;;4.10;1.40;;;;;;;-142.75;100.00;75960.13;5033719;28;20109;-62
2023/08/28 06:38:52;;;;;;;4.70;1.27;;;;;;;-142.75;100.00;75966.00;5034597;28;20037;-62
2023/08/28 06:41:20;;;;;;;2.10;1.15;;;;;;;-142.75;100.00;75958.16;5027331;28;20079;-62
2023/08/28 06:43:49;;;;;;;2.75;1.30;;;;;;;-142.75;100.00;75950.28;5027522;28;20567;-62
2023/08/28 06:46:15;;;;;;;2.47;1.10;;;;;;;-142.75;100.00;75948.31;5027173;28;20116;-62
2023/08/28 06:48:43;;;;;;;4.60;1.90;;;;;;;-142.75;100.00;75964.03;5023685;28;20029;-62
2023/08/28 06:51:10;;;;;;;4.55;2.28;;;;;;;-142.75;100.00;75960.13;5026054;28;20109;-62
2023/08/28 06:53:35;;;;;;;2.88;1.60;;;;;;;-142.75;100.00;75956.19;5020213;28;20017;-62
2023/08/28 06:56:00;;;;;;;3.83;1.55;;;;;;;-142.75;100.00;75956.19;5024895;28;20036;-62
2023/08/28 06:58:26;;;;;;;3.00;1.75;;;;;;;-142.75;100.00;75952.25;5024679;28;20056;-61
2023/08/28 07:00:51;;;;;;;3.65;1.98;;;;;;;-142.75;100.00;75944.38;5023909;28;20074;-62
2023/08/28 07:03:16;;;;;;;2.70;1.73;;;;;;;-142.75;100.00;75932.56;5024613;28;20389;-62
2023/08/28 07:05:42;;;;;;;3.33;1.60;;;;;;;-142.75;100.00;75936.50;5023849;28;20030;-62
2023/08/28 07:08:07;;;;;;;4.50;1.80;;;;;;;-142.75;100.00;75948.31;5022555;28;20033;-62
2023/08/28 07:10:32;;;;;;;2.20;1.17;;;;;;;-142.75;100.00;75967.97;5024286;28;20041;-62
2023/08/28 07:12:58;;;;;;;2.88;1.35;;;;;;;-142.75;100.00;75977.81;5021625;28;20472;-62
2023/08/28 07:15:29;;;;;;;3.33;1.52;;;;;;;-142.75;100.00;75973.88;5024253;28;20030;-62
2023/08/28 07:17:54;;;;;;;2.53;1.20;;;;;;;-142.75;100.00;75983.72;5023887;28;20049;-62
2023/08/28 07:20:22;;;;;;;3.72;1.52;;;;;;;-142.75;100.00;75979.78;5025923;28;20057;-62
2023/08/28 07:22:47;;;;;;;2.25;1.15;;;;;;;-142.75;100.00;75969.94;5026204;28;20048;-62
2023/08/28 07:25:13;;;;;;;2.67;1.38;;;;;;;-142.75;100.00;75962.09;5023424;28;20022;-62
2023/08/28 07:27:38;;;;;;;3.60;1.50;;;;;;;-142.75;100.00;75952.25;5025136;28;20064;-63
2023/08/28 07:30:04;;;;;;;3.15;1.40;;;;;;;-142.75;100.00;75944.38;5024323;28;20033;-62
2023/08/28 07:32:32;;;;;;;3.88;1.30;;;;;;;-142.75;100.00;75932.56;5023905;28;20396;-62
2023/08/28 07:35:00;;;;;;;2.25;1.30;;;;;;;-142.75;100.00;75924.69;5021823;28;20515;-62
2023/08/28 07:37:28;;;;;;;3.85;1.38;;;;;;;-142.75;100.00;75914.84;5023935;28;20030;-63
2023/08/28 07:39:54;;;;;;;4.00;1.35;;;;;;;-142.75;100.00;75944.38;5022761;28;20021;-62
2023/08/28 07:42:20;;;;;;;2.10;1.02;;;;;;;-142.75;100.00;75910.91;5027467;28;20036;-63
2023/08/28 07:44:45;;;;;;;3.78;1.08;;;;;;;-142.75;100.00;75952.25;5026091;28;20032;-62
2023/08/28 07:47:12;;;;;;;3.95;0.90;;;;;;;-142.75;100.00;75958.16;5025849;28;20025;-63
2023/08/28 07:49:38;;;;;;;2.50;0.80;;;;;;;-142.75;100.00;75920.75;5026048;28;20036;-62
2023/08/28 07:52:03;;;;;;;3.58;1.40;;;;;;;-142.75;100.00;75897.13;5025727;28;20025;-63
2023/08/28 07:54:29;;;;;;;1.98;1.00;;;;;;;-142.75;100.00;75893.19;5025022;28;20029;-63
2023/08/28 07:56:54;;;;;;;1.85;0.80;;;;;;;-142.75;100.00;75877.44;5025309;28;20041;-62
2023/08/28 07:59:19;;;;;;;1.67;0.68;;;;;;;-142.75;100.00;75881.38;5024250;28;20034;-62
2023/08/28 08:01:45;;;;;;;2.13;1.17;;;;;;;-142.75;100.00;75908.94;5025249;28;20041;-62
2023/08/28 08:04:10;;;;;;;2.15;0.80;;;;;;;-142.75;100.00;75887.28;5025513;28;20432;-63
2023/08/28 08:06:36;;;;;;;2.03;0.80;;;;;;;-142.75;100.00;75877.44;5030176;28;20026;-63
2023/08/28 08:09:01;;;;;;;4.40;0.93;;;;;;;-142.75;100.00;75897.13;5024642;28;20048;-63
2023/08/28 08:11:26;;;;;;;1.67;0.90;;;;;;;-142.75;100.00;75849.91;5017987;28;20032;-62
2023/08/28 08:13:52;;;;;;;3.25;0.90;;;;;;;-142.75;100.00;75847.94;5021691;28;20104;-63
2023/08/28 08:16:17;;;;;;;0.95;0.43;;;;;;;-142.75;100.00;75806.59;5025509;28;20032;-63
2023/08/28 08:18:42;;;;;;;0.90;0.52;;;;;;;-142.75;100.00;75792.81;5026947;28;20025;-63
2023/08/28 08:21:08;;;;;;;1.23;0.60;;;;;;;-142.75;100.00;75794.78;5028834;28;20329;-63
2023/08/28 08:23:33;;;;;;;2.45;0.65;;;;;;;-142.75;100.00;75781.00;5028426;28;20412;-64
2023/08/28 08:25:58;;;;;;;1.25;0.70;;;;;;;-142.75;100.00;75775.09;5028804;28;20493;-64
2023/08/28 08:28:24;;;;;;;1.77;0.73;;;;;;;-142.75;100.00;75773.13;5030219;28;20700;-65
2023/08/28 08:30:49;;;;;;;4.78;0.60;;;;;;;-142.75;100.00;75777.06;5028239;28;20544;-65
2023/08/28 08:33:14;;;;;;;2.35;0.60;;;;;;;-142.75;100.00;75751.50;5027493;28;20418;-64
2023/08/28 08:35:40;;;;;;;2.20;0.60;;;;;;;-142.75;100.00;75721.97;5026021;28;20029;-65
2023/08/28 08:38:05;;;;;;;1.95;0.70;;;;;;;-142.75;100.00;75723.94;5027256;28;20026;-64
2023/08/28 08:40:33;;;;;;;1.75;0.98;;;;;;;-142.75;100.00;75747.56;5028506;28;20029;-63
2023/08/28 08:42:59;;;;;;;0.95;0.50;;;;;;;-142.75;100.00;75731.81;5024635;28;20030;-63
2023/08/28 08:45:30;;;;;;;1.90;0.80;;;;;;;-142.75;100.00;75731.81;5029324;28;20048;-63
2023/08/28 08:47:58;;;;;;;2.90;0.80;;;;;;;-142.75;100.00;75686.53;5027642;28;20025;-63
2023/08/28 08:50:24;;;;;;;1.90;0.75;;;;;;;-142.75;100.00;75662.94;5029607;28;20113;-63
2023/08/28 08:52:50;;;;;;;1.60;0.70;;;;;;;-142.75;100.00;75660.97;5028115;28;20052;-63
2023/08/28 08:55:30;;;;;;;3.22;0.77;;;;;;;-142.75;100.00;75617.66;5028848;28;20076;-64
2023/08/28 08:57:59;;;;;;;2.65;1.10;;;;;;;-142.75;100.00;75613.72;5027584;28;20029;-63
2023/08/28 09:00:26;;;;;;;3.28;0.57;;;;;;;-142.75;100.00;75617.66;5028543;28;20624;-63
2023/08/28 09:02:52;;;;;;;1.38;0.40;;;;;;;-142.75;100.00;75625.53;5028160;28;20488;-63
2023/08/28 09:05:19;;;;;;;2.92;0.60;;;;;;;-142.75;100.00;75641.28;5026161;28;20075;-63
2023/08/28 09:07:46;;;;;;;1.60;0.52;;;;;;;-142.75;100.00;75706.22;5026480;28;20056;-63
2023/08/28 09:10:14;;;;;;;2.47;1.00;;;;;;;-142.75;100.00;75700.31;5026006;28;20087;-64
2023/08/28 09:12:40;;;;;;;1.20;0.50;;;;;;;-142.75;100.00;75749.53;5027506;28;20514;-63
2023/08/28 09:15:06;;;;;;;1.55;0.63;;;;;;;-142.75;100.00;75749.53;5027893;28;20013;-63
2023/08/28 09:17:36;;;;;;;1.05;0.40;;;;;;;-142.75;100.00;75745.59;5028459;28;20629;-63
2023/08/28 09:20:28;;;;;;;2.25;0.60;;;;;;;-142.75;100.00;75755.44;5027810;28;20124;-63
2023/08/28 09:22:54;;;;;;;0.90;0.52;;;;;;;-142.75;100.00;75763.28;5026857;28;20042;-63
2023/08/28 09:25:21;;;;;;;2.00;0.80;;;;;;;-142.75;100.00;75794.78;5028223;28;20033;-64
2023/08/28 09:27:49;;;;;;;1.83;0.40;;;;;;;-142.75;100.00;75847.94;5028035;28;20029;-63
2023/08/28 09:30:36;;;;;;;2.13;0.50;;;;;;;-142.75;100.00;75824.31;5028374;28;20034;-63
2023/08/28 09:33:04;;;;;;;1.45;0.40;;;;;;;-142.75;100.00;75853.84;5028294;28;20025;-63
2023/08/28 09:35:37;;;;;;;1.60;0.52;;;;;;;-142.75;100.00;75840.06;5031546;28;20026;-63
2023/08/28 09:38:03;;;;;;;1.80;0.80;;;;;;;-142.75;100.00;75869.56;5028544;28;20075;-63
2023/08/28 09:40:34;;;;;;;3.67;0.73;;;;;;;-142.75;100.00;75853.84;5029875;28;20029;-63
2023/08/28 09:43:00;;;;;;;3.63;0.57;;;;;;;-142.75;100.00;75853.84;5028690;28;20489;-63
2023/08/28 09:45:31;;;;;;;1.63;0.60;;;;;;;-142.75;100.00;75775.09;5026699;28;20478;-63
2023/08/28 09:47:56;;;;;;;2.92;0.80;;;;;;;-142.75;100.00;75759.38;5027393;28;20075;-62
2023/08/28 09:50:28;;;;;;;2.22;0.68;;;;;;;-142.75;100.00;75704.25;5040083;28;20025;-63
2023/08/28 09:52:54;;;;;;;1.63;0.70;;;;;;;-142.75;100.00;75660.97;5032806;28;20030;-62
2023/08/28 09:55:20;;;;;;;1.27;0.40;;;;;;;-142.75;100.00;75645.22;5028015;28;20506;-63
2023/08/28 09:57:45;;;;;;;1.50;0.55;;;;;;;-142.75;100.00;75623.56;5027725;28;20029;-62
2023/08/28 10:00:12;;;;;;;1.45;0.47;;;;;;;-142.75;99.30;75597.97;5028092;28;20444;-64
2023/08/28 10:02:39;;;;;;;3.17;0.80;;;;;;;-142.75;97.98;75586.19;5028164;28;20052;-63
2023/08/28 10:05:08;;;;;;;1.25;0.40;;;;;;;-142.75;100.00;75533.03;5027858;28;20022;-64
2023/08/28 10:07:38;;;;;;;0.93;0.35;;;;;;;-142.75;99.58;75511.41;5027811;28;20682;-63
2023/08/28 10:10:05;;;;;;;2.67;0.60;;;;;;;-142.75;96.56;75495.66;5023410;28;20120;-63
2023/08/28 10:12:31;;;;;;;2.05;0.52;;;;;;;-142.75;97.37;75481.88;5024892;28;20091;-63
2023/08/28 10:15:00;;;;;;;1.02;0.50;;;;;;;-142.75;100.00;75456.28;5031152;28;20017;-62
2023/08/28 10:17:27;;;;;;;2.33;0.65;;;;;;;-142.75;95.66;75446.44;5027421;28;20103;-62
2023/08/28 10:20:03;;;;;;;2.20;0.73;;;;;;;-142.75;96.68;75413.00;5027531;28;20044;-61
2023/08/28 10:22:31;;;;;;;1.00;0.30;;;;;;;-142.75;92.62;75413.00;5026280;28;20413;-62
2023/08/28 10:24:58;;;;;;;1.00;0.63;;;;;;;-142.75;96.92;75385.44;5030020;28;20033;-62
2023/08/28 10:27:25;;;;;;;0.85;0.38;;;;;;;-142.75;94.17;75403.16;5029018;28;20083;-62
2023/08/28 10:29:52;;;;;;;0.80;0.40;;;;;;;-142.75;95.01;75401.19;5027204;28;20702;-62
2023/08/28 10:32:20;;;;;;;1.90;0.57;;;;;;;-142.75;91.61;75422.84;5026399;28;20064;-63
2023/08/28 10:34:46;;;;;;;2.00;0.30;;;;;;;-142.75;91.30;75468.09;5027429;28;20029;-62
2023/08/28 10:37:13;;;;;;;1.80;0.50;;;;;;;-142.75;94.38;75497.63;5027552;28;20527;-63
2023/08/28 10:39:43;;;;;;;12.80;2.90;;;;;;;-142.75;100.00;75570.44;5025326;28;20094;-62
2023/08/28 10:42:10;;;;;;;1.73;0.40;;;;;;;-142.75;100.00;75627.50;5024043;28;20032;-62
2023/08/28 10:44:37;;;;;;;6.07;0.77;;;;;;;-142.75;100.00;75645.22;5024689;28;20021;-62
2023/08/28 10:47:02;;;;;;;1.58;0.60;;;;;;;-142.75;100.00;75690.47;5026775;28;20036;-62
2023/08/28 10:49:28;;;;;;;1.52;0.60;;;;;;;-142.75;100.00;75751.50;5026443;28;20021;-62
2023/08/28 10:52:02;;;;;;;1.98;0.70;;;;;;;-142.75;100.00;75743.63;5026075;28;20037;-61
2023/08/28 10:54:39;;;;;;;4.82;0.50;;;;;;;-142.75;100.00;75790.84;5025109;28;20095;-62
2023/08/28 10:57:10;;;;;;;4.05;0.70;;;;;;;-142.75;100.00;75790.84;5028959;28;20409;-62
2023/08/28 10:59:43;;;;;;;3.90;0.60;;;;;;;-142.75;100.00;75794.78;5025911;28;20029;-62
2023/08/28 11:02:09;;;;;;;225.82;19.20;;;;;;;-142.75;100.00;75844.00;5024008;28;20605;-63
2023/08/28 11:04:37;;;;;;;6.47;0.70;;;;;;;-142.75;100.00;75865.63;5025257;28;20448;-63
2023/08/28 11:07:04;;;;;;;1.88;0.50;;;;;;;-142.75;100.00;75869.56;5025525;28;20022;-63